Flight Track Log - Related Links

Times and Time Zones

All times are in EDT time to prevent confusion due to time zone crossing. See the GLF17 flight status page for this flight to view local times or setup timezone preferences in your user account.

Time Position Orientation Groundspeed Altitude Reporting Facility
EDT Latitude Longitude Course Direction KTS MPH feet Rate Location/Type
Tue 01:29:39 PM 32.1289 -81.2586 286° West 214 246 2,700  Level Jacksonville Center
Tue 01:30:38 PM 32.1650 -81.3072 311° West 255 293 6,400 3,731 Climbing Jacksonville Center
Tue 01:31:38 PM 32.2139 -81.3825 308° West 269 310 10,100 3,360 Climbing Jacksonville Center
Tue 01:33:33 PM 32.2622 -81.5653 287° West 316 364 16,200 3,360 Climbing Atlanta Center
Tue 01:34:33 PM 32.2853 -81.6728 284° West 330 380 19,900 3,450 Climbing Atlanta Center
Tue 01:35:00 PM 32.1276 -81.2021 286° West  Level Estimated
Tue 01:35:33 PM 32.3081 -81.7781 284° West 336 387 23,100  Level Atlanta Center
Tue 01:36:33 PM 32.3311 -81.8953 283° West 347 399 25,800 2,750 Climbing Atlanta Center
Tue 01:37:33 PM 32.3542 -82.0153 283° West 365 420 28,600 2,900 Climbing Atlanta Center
Tue 01:39:33 PM 32.4056 -82.2503 285° West 376 433 34,500 2,467 Climbing Atlanta Center
Tue 01:40:33 PM 32.4283 -82.3728 282° West 371 427 36,000 1,750 Climbing Atlanta Center
Tue 01:41:33 PM 32.4547 -82.4881 285° West 371 427 38,000 1,750 Climbing Atlanta Center
Tue 01:42:33 PM 32.4814 -82.6156 284° West 376 433 39,500 1,600 Climbing Atlanta Center
Tue 01:43:33 PM 32.5081 -82.7531 283° West 382 440 41,200 1,400 Climbing Atlanta Center
Tue 01:44:33 PM 32.5300 -82.8636 283° West 387 445 42,300 900 Climbing Atlanta Center
Tue 01:45:33 PM 32.5625 -83.0036 285° West 394 453 43,000 350 Climbing Atlanta Center
Tue 01:46:33 PM 32.5864 -83.1342 282° West 394 453 43,000  Level Atlanta Center
Tue 01:47:33 PM 32.6144 -83.2644 284° West 400 460 43,000  Level Atlanta Center
Tue 01:48:33 PM 32.6403 -83.4000 283° West 412 474 43,000  Level Atlanta Center
Tue 01:49:33 PM 32.6703 -83.5356 285° West 419 482 43,000  Level Atlanta Center
Tue 01:50:33 PM 32.6917 -83.6686 281° West 419 482 43,000  Level Atlanta Center
Tue 01:51:33 PM 32.6897 -83.8069 269° West 419 482 43,000  Level Atlanta Center
Tue 01:52:33 PM 32.6881 -83.9425 269° West 419 482 43,000  Level Atlanta Center
Tue 01:53:33 PM 32.6900 -84.0783 271° West 419 482 43,000  Level Atlanta Center
Tue 01:54:33 PM 32.6900 -84.2167 270° West 419 482 43,000  Level Atlanta Center
Tue 01:55:33 PM 32.6875 -84.3522 269° West 419 482 43,000  Level Atlanta Center
Tue 01:56:33 PM 32.6850 -84.4906 269° West 419 482 43,000  Level Atlanta Center
Tue 01:57:33 PM 32.6844 -84.6261 270° West 419 482 43,000  Level Atlanta Center
Tue 01:58:33 PM 32.6839 -84.7644 270° West 419 482 43,000  Level Atlanta Center
Tue 01:59:33 PM 32.6869 -84.9028 272° West 419 482 43,000  Level Atlanta Center
Tue 02:00:33 PM 32.6819 -85.0383 268° West 413 475 43,000  Level Atlanta Center
Tue 02:01:33 PM 32.6764 -85.1739 267° West 420 483 43,000  Level Atlanta Center
Tue 02:02:33 PM 32.6772 -85.3172 270° West 425 489 43,000  Level Atlanta Center
Tue 02:03:33 PM 32.6736 -85.4553 268° West 425 489 43,000  Level Atlanta Center
Tue 02:04:33 PM 32.6719 -85.5958 269° West 425 489 43,000  Level Atlanta Center
Tue 02:05:33 PM 32.6700 -85.7364 269° West 420 483 43,000  Level Atlanta Center
Tue 02:06:33 PM 32.6681 -85.8794 269° West 420 483 43,000  Level Atlanta Center
Tue 02:07:33 PM 32.6639 -86.0153 268° West 425 489 43,000  Level Atlanta Center
Tue 02:08:34 PM 32.6614 -86.1558 269° West 420 483 43,000 400 Level Atlanta Center
Tue 02:09:33 PM 32.6569 -86.2989 268° West 425 489 43,800 908 Climbing Atlanta Center
Tue 02:10:33 PM 32.6542 -86.4394 269° West 425 489 44,800 900 Climbing Atlanta Center
Tue 02:11:33 PM 32.6514 -86.5822 269° West 430 495 45,600 800 Climbing Atlanta Center
Tue 02:12:33 PM 32.6483 -86.7228 269° West 430 495 46,400 650 Climbing Atlanta Center
Tue 02:13:33 PM 32.6453 -86.8583 269° West 423 487 46,900 300 Climbing Atlanta Center
Tue 02:14:33 PM 32.6419 -87.0014 268° West 423 487 47,000 50 Climbing Atlanta Center
Tue 02:15:33 PM 32.6364 -87.1417 267° West 423 487 47,000  Level Atlanta Center
Tue 02:16:33 PM 32.6306 -87.2847 267° West 423 487 47,000  Level Atlanta Center
Tue 02:18:32 PM 32.6239 -87.5628 268° West 449 517 47,000  Level Memphis Center
Tue 02:19:32 PM 32.6206 -87.7008 268° West 442 509 47,000  Level Memphis Center
Tue 02:20:32 PM 32.6131 -87.8442 266° West 437 503 47,000  Level Memphis Center
Tue 02:21:32 PM 32.6092 -87.9650 268° West 432 497 47,000  Level Memphis Center
Tue 02:22:32 PM 32.6036 -88.1058 267° West 427 491 47,000  Level Memphis Center
Tue 02:23:32 PM 32.5975 -88.2439 267° West 427 491 47,000  Level Memphis Center
Tue 02:24:32 PM 32.5917 -88.3897 267° West 427 491 47,000  Level Memphis Center
Tue 02:25:32 PM 32.5853 -88.5303 267° West 427 491 47,000  Level Memphis Center
Tue 02:26:32 PM 32.5811 -88.6686 268° West 427 491 47,000  Level Memphis Center
Tue 02:27:32 PM 32.5747 -88.8142 267° West 427 491 47,000  Level Memphis Center
Tue 02:28:32 PM 32.5681 -88.9719 267° West 432 497 47,000  Level Memphis Center
Tue 02:29:32 PM 32.5614 -89.1125 267° West 432 497 47,000  Level Memphis Center
Tue 02:30:32 PM 32.5542 -89.2506 266° West 432 497 47,000  Level Memphis Center
Tue 02:31:32 PM 32.5469 -89.3911 267° West 432 497 47,000  Level Memphis Center
Tue 02:32:32 PM 32.5397 -89.5317 267° West 432 497 47,000  Level Memphis Center
Tue 02:33:32 PM 32.5322 -89.6722 266° West 432 497 47,000  Level Memphis Center
Tue 02:34:32 PM 32.5244 -89.7981 266° West 432 497 47,000  Level Memphis Center
Tue 02:35:32 PM 32.5189 -89.9408 267° West 432 497 47,000  Level Memphis Center
Tue 02:36:32 PM 32.5108 -90.0814 266° West 432 497 47,000  Level Memphis Center
Tue 02:37:32 PM 32.4861 -90.2169 258° West 427 491 47,000  Level Memphis Center
Tue 02:38:32 PM 32.4214 -90.3353 237° Southwest 419 482 47,000  Level Memphis Center
Tue 02:39:32 PM 32.3544 -90.4581 237° Southwest 424 488 47,000  Level Memphis Center
Tue 02:41:24 PM 32.2417 -90.6775 239° Southwest 432 497 47,000  Level Houston Center
Tue 02:42:26 PM 32.1703 -90.8106 238° Southwest 434 499 47,000  Level Houston Center
Tue 02:43:28 PM 32.1083 -90.9314 239° Southwest 433 498 47,000  Level Houston Center
Tue 02:44:30 PM 32.0428 -91.0531 238° Southwest 437 503 47,000  Level Houston Center
Tue 02:45:32 PM 31.9761 -91.1753 237° Southwest 442 509 47,000  Level Houston Center
Tue 02:46:35 PM 31.8997 -91.3194 238° Southwest 434 499 47,000  Level Houston Center
Tue 02:47:37 PM 31.8361 -91.4378 238° Southwest 428 493 47,000  Level Houston Center
Tue 02:48:39 PM 31.7717 -91.5589 238° Southwest 436 502 47,000  Level Houston Center
Tue 02:49:41 PM 31.7058 -91.6794 237° Southwest 438 504 47,000  Level Houston Center
Tue 02:50:43 PM 31.6414 -91.7994 238° Southwest 436 502 47,000  Level Houston Center
Tue 02:51:45 PM 31.5750 -91.9197 237° Southwest 439 505 47,000  Level Houston Center
Tue 02:52:47 PM 31.5014 -92.0553 238° Southwest 440 506 47,000  Level Houston Center
Tue 02:53:49 PM 31.4353 -92.1742 237° Southwest 437 503 47,000  Level Houston Center
Tue 02:54:51 PM 31.3703 -92.2928 237° Southwest 436 502 47,000  Level Houston Center
Tue 02:55:53 PM 31.3028 -92.4153 237° Southwest 447 514 47,000  Level Houston Center
Tue 02:56:55 PM 31.1958 -92.5328 223° Southwest 454 522 47,000  Level Houston Center
Tue 02:57:57 PM 31.0803 -92.5978 206° Southwest 460 529 47,000  Level Houston Center
Tue 02:58:59 PM 30.9714 -92.6564 205° Southwest 455 524 47,000  Level Houston Center
Tue 03:00:02 PM 30.8575 -92.7189 205° Southwest 453 521 47,000  Level Houston Center
Tue 03:01:04 PM 30.7203 -92.7931 205° Southwest 452 520 47,000  Level Houston Center
Tue 03:02:06 PM 30.6208 -92.8472 205° Southwest 458 527 47,000  Level Houston Center
Tue 03:03:08 PM 30.4822 -92.9219 205° Southwest 456 525 47,000  Level Houston Center
Tue 03:04:10 PM 30.3647 -92.9792 203° Southwest 457 526 47,000  Level Houston Center
Tue 03:05:12 PM 30.2353 -92.9633 174° South 479 551 47,000  Level Houston Center
Tue 03:06:14 PM 30.1369 -92.8611 138° Southeast 484 557 47,000  Level Houston Center
Tue 03:07:16 PM 30.1072 -92.7094 103° East 490 564 47,000  Level Houston Center
Tue 03:08:19 PM 30.0944 -92.5542 95° East 491 565 47,000  Level Houston Center
Tue 03:09:21 PM 30.0789 -92.3675 95° East 489 563 47,000  Level Houston Center
Tue 03:10:23 PM 30.0644 -92.2100 96° East 493 567 47,000  Level Houston Center
Tue 03:11:25 PM 30.0497 -92.0544 96° East 491 565 47,000  Level Houston Center
Tue 03:12:27 PM 30.0361 -91.8989 96° East 489 563 47,000  Level Houston Center
Tue 03:13:29 PM 30.0225 -91.7431 96° East 490 564 47,000  Level Houston Center
Tue 03:14:31 PM 30.0061 -91.5703 96° East 494 568 47,000  Level Houston Center
Tue 03:15:33 PM 29.9983 -91.4139 93° East 491 565 47,000  Level Houston Center
Tue 03:16:36 PM 30.0306 -91.2636 76° East 488 562 47,000  Level Houston Center
Tue 03:17:38 PM 30.0692 -91.0822 76° East 487 560 47,000  Level Houston Center
Tue 03:18:40 PM 30.1003 -90.9294 77° East 491 565 47,000  Level Houston Center
Tue 03:19:42 PM 30.1314 -90.7761 77° East 491 565 47,000  Level Houston Center
Tue 03:20:44 PM 30.1625 -90.6233 77° East 492 566 47,000  Level Houston Center
Tue 03:21:46 PM 30.1931 -90.4711 77° East 488 562 47,000  Level Houston Center
Tue 03:22:48 PM 30.2247 -90.3183 76° East 489 563 47,000  Level Houston Center
Tue 03:23:51 PM 30.2603 -90.1325 77° East 494 568 47,000  Level Houston Center
Tue 03:24:53 PM 30.2911 -89.9772 77° East 496 571 47,000  Level Houston Center
Tue 03:25:55 PM 30.3236 -89.8161 77° East 497 572 47,000  Level Houston Center
Tue 03:26:57 PM 30.3533 -89.6600 78° East 498 573 47,000  Level Houston Center
Tue 03:27:59 PM 30.3878 -89.4906 77° East 504 580 47,000  Level Houston Center
Tue 03:29:01 PM 30.4172 -89.3353 78° East 498 573 47,000  Level Houston Center
Tue 03:30:03 PM 30.4458 -89.1772 78° East 503 579 47,000  Level Houston Center
Tue 03:31:06 PM 30.4750 -89.0194 78° East 502 578 47,000  Level Houston Center
Tue 03:32:08 PM 30.5086 -88.8408 78° East 508 585 47,000  Level Houston Center
Tue 03:33:10 PM 30.5386 -88.6844 77° East 502 578 47,000  Level Houston Center
Tue 03:34:12 PM 30.5678 -88.5264 78° East 503 579 47,000  Level Houston Center
Tue 03:35:14 PM 30.6017 -88.3397 78° East 499 574 47,000  Level Houston Center
Tue 03:36:16 PM 30.6308 -88.1828 78° East 502 578 47,000  Level Houston Center
Tue 03:37:18 PM 30.6603 -88.0247 78° East 506 582 47,000  Level Houston Center
Tue 03:38:21 PM 30.6933 -87.8486 78° East 502 578 47,000  Level Houston Center
Tue 03:38:39 PM 30.7000 -87.8014 81° East 502 578 47,000  Level Jacksonville Center
Tue 03:39:39 PM 30.7289 -87.6458 78° East 502 578 47,000  Level Jacksonville Center
Tue 03:40:39 PM 30.7578 -87.4878 78° East 502 578 47,000  Level Jacksonville Center
Tue 03:41:39 PM 30.7842 -87.3294 79° East 502 578 47,000  Level Jacksonville Center
Tue 03:42:39 PM 30.8125 -87.1761 78° East 502 578 47,000  Level Jacksonville Center
Tue 03:43:39 PM 30.8406 -87.0200 78° East 502 578 47,000  Level Jacksonville Center
Tue 03:44:39 PM 30.8686 -86.8592 78° East 502 578 47,000  Level Jacksonville Center
Tue 03:45:39 PM 30.8964 -86.7031 78° East 502 578 47,000  Level Jacksonville Center
Tue 03:46:39 PM 30.9214 -86.5586 79° East 502 578 47,000 -50 Level Jacksonville Center
Tue 03:47:39 PM 30.9469 -86.4000 79° East 502 578 46,900 -850 Descending Jacksonville Center
Tue 03:48:39 PM 30.9697 -86.2433 80° East 502 578 45,300 -2,000 Descending Jacksonville Center
Tue 03:49:39 PM 30.9969 -86.0844 79° East 502 578 42,900 -2,150 Descending Jacksonville Center
Tue 03:50:39 PM 31.0239 -85.9228 79° East 502 578 41,000 -950 Descending Jacksonville Center
Tue 03:51:39 PM 31.0506 -85.7636 79° East 502 578 41,000  Level Jacksonville Center
Tue 03:52:39 PM 31.0772 -85.5969 79° East 508 585 41,000  Level Jacksonville Center
Tue 03:53:39 PM 31.1033 -85.4378 79° East 508 585 41,000  Level Jacksonville Center
Tue 03:54:39 PM 31.1294 -85.2711 80° East 508 585 41,000  Level Jacksonville Center
Tue 03:55:39 PM 31.1581 -85.0872 80° East 508 585 41,000  Level Jacksonville Center
Tue 03:56:39 PM 31.1836 -84.9250 80° East 514 592 41,000  Level Jacksonville Center
Tue 03:57:39 PM 31.2092 -84.7556 80° East 514 592 41,000  Level Jacksonville Center
Tue 03:58:39 PM 31.2344 -84.5886 80° East 519 597 41,000 -550 Level Jacksonville Center
Tue 03:59:39 PM 31.2617 -84.4214 79° East 525 604 39,900 -1,300 Descending Jacksonville Center
Tue 04:00:39 PM 31.2844 -84.2564 81° East 520 598 38,400 -1,450 Descending Jacksonville Center
Tue 04:01:39 PM 31.3089 -84.0939 80° East 520 598 37,000 -800 Descending Jacksonville Center
Tue 04:02:39 PM 31.3333 -83.9264 80° East 520 598 36,800 -850 Descending Jacksonville Center
Tue 04:03:39 PM 31.3597 -83.7564 80° East 525 604 35,300 -1,500 Descending Jacksonville Center
Tue 04:04:39 PM 31.3839 -83.5886 80° East 525 604 33,800 -1,450 Descending Jacksonville Center
Tue 04:05:39 PM 31.4075 -83.4208 81° East 525 604 32,400 -1,450 Descending Jacksonville Center
Tue 04:06:39 PM 31.4331 -83.2481 80° East 525 604 30,900 -1,500 Descending Jacksonville Center
Tue 04:07:39 PM 31.4586 -83.0778 80° East 525 604 29,400 -1,400 Descending Jacksonville Center
Tue 04:08:39 PM 31.4775 -82.9097 82° East 525 604 28,100 -1,300 Descending Jacksonville Center
Tue 04:09:39 PM 31.5025 -82.7439 80° East 520 598 26,800 -1,300 Descending Jacksonville Center
Tue 04:10:39 PM 31.5272 -82.5806 80° East 515 593 25,500 -1,300 Descending Jacksonville Center
Tue 04:11:39 PM 31.5706 -82.4317 71° East 495 570 24,200 -1,350 Descending Jacksonville Center
Tue 04:12:39 PM 31.6014 -82.2875 76° East 473 544 22,800 -1,250 Descending Jacksonville Center
Tue 04:13:39 PM 31.6319 -82.1483 76° East 478 550 21,700 -1,300 Descending Jacksonville Center
Tue 04:14:39 PM 31.6747 -81.9894 72° East 470 541 20,200 -1,200 Descending Jacksonville Center
Tue 04:15:39 PM 31.7114 -81.8594 72° East 461 531 19,300 -1,000 Descending Jacksonville Center
Tue 04:16:39 PM 31.7517 -81.7053 73° East 454 522 18,200 -1,000 Descending Jacksonville Center
Tue 04:17:39 PM 31.7900 -81.5628 72° East 454 522 17,300 -1,300 Descending Jacksonville Center
Tue 04:18:39 PM 31.8200 -81.4428 74° East 442 509 15,600 -2,000 Descending Jacksonville Center
Tue 04:19:39 PM 31.8706 -81.3122 65° Northeast 412 474 13,300 -2,000 Descending Jacksonville Center
Tue 04:20:39 PM 31.9239 -81.2231 55° Northeast 384 442 11,600 -1,950 Descending Jacksonville Center
Tue 04:21:39 PM 31.9644 -81.1392 60° Northeast 301 346 9,400 -2,450 Descending Jacksonville Center
Tue 04:22:39 PM 32.0008 -81.0578 62° Northeast 278 320 6,700 -2,200 Descending Jacksonville Center
Tue 04:23:39 PM 32.0519 -80.9783 53° Northeast 269 310 5,000 -1,550 Descending Jacksonville Center
Tue 04:24:39 PM 32.1147 -80.9842 355° North 206 237 3,600 -1,200 Descending Jacksonville Center
Tue 04:25:39 PM 32.1239 -81.0406 281° West 142 163 2,600 -1,000 Descending Jacksonville Center
Tue 04:27:00 PM 32.1276 -81.2021 272° West  Level Estimated
Tue 04:34:00 PM 32.1276 -81.2021 16° North  Level Estimated
Tue 04:35:00 PM 32.1276 -81.2021 16° North  Level Estimated
Tue 04:36:00 PM 32.1276 -81.2021 16° North  Level Estimated
Tue 04:37:00 PM 32.1276 -81.2021 16° North  Level Estimated
Tue 04:38:00 PM 32.1276 -81.2021 16° North  Level Estimated

Login

Don't have an account? Register now (free) for customized features, flight alerts, and more!